Home   Weather   France   Toulon   Past weeks
Flag for France

Past Weather in Toulon, Provence-Alpes-Côte-d’Azur, France — Yesterday and Last 2 Weeks

Currently: 32 °F. Clear. (Weather station: Hyeres Airport, France). See more current weather

Past Weather in Toulon — Graph

°F

Toulon Temperature Yesterday

Maximum temperature yesterday: 55 °F (at 12:00 pm)
Minimum temperature yesterday: 34 °F (at 11:00 pm)
Average temperature yesterday: 44 °F

High & Low Weather Summary for the Past Weeks

 TemperatureHumidityPressure
High63 °F (Jan 14, 4:00 pm)100% (Jan 22, 10:30 pm)30.57 "Hg (Jan 22, 10:30 pm)
Low30 °F (Jan 14, 8:00 am)29% (Jan 11, 1:00 pm)29.68 "Hg (Jan 10, 2:30 am)
Average46 °F63%30.24 "Hg
* Reported Jan 8 6:00 am — Jan 23 6:30 am, Toulon. Weather by CustomWeather, © 2022

Note: Actual official high and low records may vary slightly from our data, if they occured in-between our weather recording intervals... More about our weather records

Toulon Weather History for the Previous 24 Hours

Scroll right to see more
 ConditionsComfort  
Time TempWeatherWind HumidityBarometerVisibility
6:30 am
Sun, Jan 23
30 °FClear.5 mph86%30.33 "Hg10 mi
6:00 am30 °FClear.6 mph93%30.33 "Hg10 mi
5:30 am32 °FClear.2 mph87%30.33 "Hg10 mi
5:00 am34 °FClear.3 mph81%30.33 "Hg10 mi
4:30 am34 °FPassing clouds.3 mph87%30.33 "HgN/A
4:00 am32 °FClear.3 mph87%30.33 "Hg10 mi
3:30 am36 °FClear.1 mph81%30.33 "Hg10 mi
2:30 am36 °FClear.6 mph87%30.33 "Hg10 mi
2:00 am34 °FPassing clouds.3 mph93%30.36 "HgN/A
1:30 am32 °FClear.3 mph93%30.36 "Hg10 mi
1:00 am34 °FPassing clouds.5 mph93%30.36 "HgN/A
12:30 am36 °FPassing clouds.6 mph93%30.36 "HgN/A
12:00 am34 °FClear.3 mph93%30.36 "Hg10 mi
11:30 pm
Sat, Jan 22
34 °FPassing clouds.3 mph93%30.36 "HgN/A
11:00 pm34 °FClear.2 mph93%30.36 "Hg10 mi
10:30 pm36 °FClear.2 mph100%30.36 "Hg10 mi
10:00 pm36 °FClear.2 mph93%30.33 "Hg10 mi
9:30 pm37 °FPassing clouds.3 mph93%30.36 "HgN/A
9:00 pm39 °FClear.7 mph93%30.33 "Hg10 mi
8:30 pm39 °FClear.2 mph87%30.36 "Hg10 mi
8:00 pm39 °FClear.2 mph87%30.36 "Hg10 mi
7:30 pm41 °FClear.3 mph87%30.33 "Hg10 mi
7:00 pm41 °FClear.3 mph87%30.33 "Hg10 mi
6:30 pm45 °FClear.No wind81%30.33 "Hg10 mi
6:00 pm48 °FClear.No wind71%30.33 "Hg10 mi
5:30 pm50 °FSunny.3 mph71%30.33 "Hg10 mi
5:00 pm52 °FSunny.3 mph67%30.30 "Hg10 mi
4:30 pm54 °FSunny.5 mph58%30.30 "Hg10 mi
4:00 pm54 °FSunny.6 mph63%30.30 "Hg10 mi
3:30 pm55 °FPassing clouds.6 mph59%30.30 "HgN/A
3:00 pm55 °FPassing clouds.7 mph55%30.30 "HgN/A
2:30 pm55 °FPassing clouds.7 mph55%30.30 "HgN/A
2:00 pm55 °FPassing clouds.6 mph51%30.30 "HgN/A
1:30 pm55 °FPassing clouds.6 mph55%30.33 "HgN/A
1:00 pm55 °FPassing clouds.6 mph59%30.33 "HgN/A
12:30 pm55 °FPassing clouds.3 mph59%30.33 "HgN/A
12:00 pm55 °FPassing clouds.5 mph63%30.33 "HgN/A
11:30 am54 °FSunny.3 mph58%30.33 "Hg10 mi
11:00 am52 °FSunny.1 mph50%30.33 "Hg10 mi
10:30 am50 °FSunny.3 mph50%30.33 "Hg10 mi
10:00 am46 °FSunny.2 mph57%30.33 "Hg10 mi
9:30 am43 °FSunny.3 mph61%30.33 "Hg10 mi
9:00 am39 °FSunny.5 mph65%30.33 "Hg10 mi
8:30 am39 °FSunny.3 mph65%30.33 "Hg10 mi
8:00 am37 °FPassing clouds.7 mph65%30.33 "HgN/A
Weather by CustomWeather, © 2022

See weather overview